Mosca, CO (81146)

7:49 AM MDT on October 23, 2014 (GMT -0600)
Hooper | Change Station
CLOSE
Current Station
Personal Weather Station
Location: Hooper, CO
Elevation: 7559 ft
Nearby Weather Stations

Elev 7559 ft 37.73 °N, 105.87 °W | Updated 2 seconds ago

Clear
Clear
28.0 °F
Feels Like 28 °F
N
0.0
Wind Variable Wind from NNW
Gusts 3.0 mph

Today
High -- | Low -- °F
--% Chance of Precip.
Yesterday
High -- | Low -- °F
Precip. -- in
7:18 AM 6:14 PM
Waning Crescent, 0% visible
Pressure 30.27 in
Visibility 10.0 miles
Clouds Clear
Windchill 28 °F
Dew Point 26 °F
Humidity 90%
Rainfall 0.00 in
Snow Depth 0 in , 1 in
UV 0 out of 12
Pollen 2.10 out of 12
Air Quality Not available.
Flu Activity Sporadic
METAR KALS 231252Z AUTO 00000KT 10SM CLR M02/M04 A3034 RMK AO2 SLP249 T10221044

More Conditions Fewer Conditions

Pressure 30.27 in
Visibility 10.0 miles
Clouds Clear
Windchill 28 °F
Dew Point 26 °F
Humidity 90%
Rainfall 0.00 in
Snow Depth 0 in , 1 in
UV 0 out of 12
Pollen 2.10 out of 12
Air Quality Not available.
Flu Activity Sporadic
METAR KALS 231252Z AUTO 00000KT 10SM CLR M02/M04 A3034 RMK AO2 SLP249 T10221044

More Conditions Fewer Conditions

10-Day Weather Forecast

Almanac

Astronomy

Oct. 23, 2014 Rise Set
Actual Time 7:18 AM MDT 6:14 PM MDT
Civil Twilight 6:52 AM MDT 6:41 PM MDT
Nautical Twilight 6:21 AM MDT 7:12 PM MDT
Astronomical Twilight 5:51 AM MDT 7:42 PM MDT
Moon 7:01 AM MDT 6:18 PM MDT
Length of Visible Light 11h 49m
Length of Day
10h 55m
Tomorrow will be 2m 15s shorter.
Waning Crescent, 0% of the Moon is Illuminated
Today
Waning Crescent
Oct 23
New
Oct 30
First Quarter
Nov 6
Full
Nov 14
Last Quarter

Today's Extremes

State Highs State Lows

Community

WunderPhotos

Upload Photos

1,764,238 photos uploaded!

Nearby

Snow Depth

Station Depth Elevation
Ute Creek 0 in 10650 ft
Medano Pass 1 in 9620 ft
South Colony 0 in 10800 ft
Trinchera 1 in 10860 ft
Culebra #2 0 in 10500 ft

Earthquake Activity

City Distance Mag. Time & Date
Trinidad, Colorado 56 miles 2.7 10:33 PM MDT
2014-10-20
Minimum magnitude displayed is 2.5.

Coastal Water Temperatures

Place Temperature
No Stations Reporting

Nearby Weather Stations